Time;durP1;ratioP1;P1;durP2;ratioP2;P2;SDS_P1;SDS_P2;PMS_P1;PMS_P2;Temp;Humidity;BMP_temperature;BMP_pressure;BME280_temperature;BME280_humidity;BME280_pressure;Samples;Min_cycle;Max_cycle;Signal;HPM_P1;HPM_P2
2024/04/15 00:01:31;;;;;;;3.03;2.17;;;12.40;99.90;;;;;;5380136;26;20234;-74
2024/04/15 00:03:56;;;;;;;9.63;2.73;;;12.40;99.90;;;;;;5382370;26;20252;-73
2024/04/15 00:06:23;;;;;;;3.73;2.80;;;12.40;99.90;;;;;;5382606;26;20217;-74
2024/04/15 00:08:49;;;;;;;9.80;2.97;;;12.40;99.90;;;;;;5382445;26;20218;-73
2024/04/15 00:11:14;;;;;;;3.17;1.93;;;12.40;99.90;;;;;;5381599;26;20519;-74
2024/04/15 00:13:40;;;;;;;3.13;2.47;;;12.30;99.90;;;;;;5382182;26;20209;-74
2024/04/15 00:16:08;;;;;;;3.03;1.90;;;12.30;99.90;;;;;;5382128;26;20252;-73
2024/04/15 00:18:34;;;;;;;3.73;2.37;;;12.30;99.90;;;;;;5382033;26;20210;-73
2024/04/15 00:21:00;;;;;;;3.00;2.70;;;12.30;99.90;;;;;;5371460;26;20517;-74
2024/04/15 00:23:26;;;;;;;7.17;2.83;;;12.20;99.90;;;;;;5379842;26;20221;-74
2024/04/15 00:25:56;;;;;;;9.13;2.83;;;12.20;99.90;;;;;;5382276;26;20463;-73
2024/04/15 00:28:22;;;;;;;4.53;2.50;;;12.20;99.90;;;;;;5380351;26;20492;-73
2024/04/15 00:30:48;;;;;;;6.47;2.17;;;12.20;99.90;;;;;;5381499;26;20546;-74
2024/04/15 00:33:14;;;;;;;5.37;2.60;;;12.10;99.90;;;;;;5380193;26;20347;-74
2024/04/15 00:35:43;;;;;;;7.97;3.00;;;12.10;99.90;;;;;;5381970;26;20453;-73
2024/04/15 00:38:09;;;;;;;4.10;2.50;;;12.10;99.90;;;;;;5381824;26;20221;-74
2024/04/15 00:40:34;;;;;;;3.13;2.20;;;12.00;99.90;;;;;;5379618;26;21113;-74
2024/04/15 00:43:01;;;;;;;3.90;3.37;;;12.00;99.90;;;;;;5381830;26;20260;-74
2024/04/15 00:45:31;;;;;;;7.03;2.80;;;12.00;99.90;;;;;;5381909;26;20273;-74
2024/04/15 00:47:58;;;;;;;3.20;2.47;;;12.00;99.90;;;;;;5375588;26;20934;-74
2024/04/15 00:50:27;;;;;;;4.20;2.37;;;12.00;99.90;;;;;;5367223;26;20455;-74
2024/04/15 00:52:54;;;;;;;2.27;2.07;;;12.00;99.90;;;;;;5381602;26;20535;-73
2024/04/15 00:55:22;;;;;;;2.60;2.27;;;11.90;99.90;;;;;;5381456;26;20455;-74
2024/04/15 00:57:49;;;;;;;3.50;2.73;;;12.00;99.90;;;;;;5381397;26;20542;-74
2024/04/15 01:00:15;;;;;;;4.27;2.90;;;11.90;99.90;;;;;;5381147;26;20557;-74
2024/04/15 01:02:43;;;;;;;6.50;3.00;;;11.90;99.90;;;;;;5381146;26;20484;-73
2024/04/15 01:05:09;;;;;;;3.67;3.37;;;11.90;99.90;;;;;;5378479;26;20452;-74
2024/04/15 01:07:36;;;;;;;4.07;3.37;;;11.80;99.90;;;;;;5381373;26;20459;-74
2024/04/15 01:10:05;;;;;;;3.43;3.07;;;11.80;99.90;;;;;;5381262;26;20465;-74
2024/04/15 01:12:31;;;;;;;10.80;2.93;;;11.80;99.90;;;;;;5381395;26;20900;-73
2024/04/15 01:14:57;;;;;;;5.57;3.50;;;11.70;99.90;;;;;;5379340;26;20510;-73
2024/04/15 01:17:22;;;;;;;3.70;2.30;;;11.70;99.90;;;;;;5377592;26;20456;-73
2024/04/15 01:19:48;;;;;;;6.03;3.47;;;11.70;99.90;;;;;;5375247;26;20463;-73
2024/04/15 01:22:23;;;;;;;11.00;3.90;;;11.60;99.90;;;;;;5381310;26;20222;-74
2024/04/15 01:24:49;;;;;;;3.90;3.60;;;11.50;99.90;;;;;;5381220;26;20677;-73
2024/04/15 01:27:16;;;;;;;5.90;3.03;;;11.50;99.90;;;;;;5381222;26;20432;-73
2024/04/15 01:29:41;;;;;;;4.57;3.40;;;11.50;99.90;;;;;;5380582;26;20515;-73
2024/04/15 01:32:07;;;;;;;3.40;3.10;;;11.40;99.90;;;;;;5379319;26;20448;-73
2024/04/15 01:34:32;;;;;;;4.10;3.70;;;11.30;99.90;;;;;;5381312;26;20261;-73
2024/04/15 01:36:58;;;;;;;3.10;2.60;;;11.20;99.90;;;;;;5381064;26;20217;-73
2024/04/15 01:39:24;;;;;;;9.27;3.50;;;11.10;99.90;;;;;;5378729;26;20546;-74
2024/04/15 01:41:49;;;;;;;3.93;3.60;;;11.00;99.90;;;;;;5380998;26;20244;-73
2024/04/15 01:44:15;;;;;;;5.40;3.10;;;10.80;99.90;;;;;;5380701;26;20209;-73
2024/04/15 01:46:40;;;;;;;7.87;3.80;;;10.70;99.90;;;;;;5377520;26;20218;-73
2024/04/15 01:49:06;;;;;;;5.00;4.20;;;10.50;99.90;;;;;;5374704;26;20269;-73
2024/04/15 01:51:31;;;;;;;4.93;3.67;;;10.40;99.90;;;;;;5378457;26;20279;-73
2024/04/15 01:53:57;;;;;;;5.00;3.20;;;10.30;99.90;;;;;;5381236;26;20210;-73
2024/04/15 01:56:23;;;;;;;4.00;3.10;;;10.20;99.90;;;;;;5380670;26;20210;-73
2024/04/15 01:58:48;;;;;;;3.73;3.30;;;10.10;99.90;;;;;;5380216;26;20214;-73
2024/04/15 02:01:14;;;;;;;5.87;3.23;;;10.00;99.90;;;;;;5380016;26;20828;-73
2024/04/15 02:03:41;;;;;;;5.90;3.90;;;9.90;99.90;;;;;;5380643;26;20256;-73
2024/04/15 02:06:06;;;;;;;5.50;3.70;;;9.80;99.90;;;;;;5380722;26;20205;-73
2024/04/15 02:08:32;;;;;;;5.70;3.67;;;9.80;99.90;;;;;;5380728;26;20503;-73
2024/04/15 02:10:57;;;;;;;6.67;4.63;;;9.70;99.90;;;;;;5380646;26;20264;-73
2024/04/15 02:13:23;;;;;;;5.03;3.70;;;9.70;99.90;;;;;;5380553;26;20314;-73
2024/04/15 02:15:48;;;;;;;4.83;4.33;;;9.60;99.90;;;;;;5380111;26;20317;-73
2024/04/15 02:18:14;;;;;;;8.30;3.87;;;9.50;99.90;;;;;;5380893;26;20556;-74
2024/04/15 02:20:40;;;;;;;6.60;4.80;;;9.50;99.90;;;;;;5378000;26;20319;-73
2024/04/15 02:23:06;;;;;;;10.30;4.93;;;9.50;99.90;;;;;;5380412;26;20217;-73
2024/04/15 02:25:31;;;;;;;11.73;5.03;;;9.40;99.90;;;;;;5380176;26;20451;-73
2024/04/15 02:27:57;;;;;;;6.33;4.33;;;9.40;99.90;;;;;;5380426;26;20318;-73
2024/04/15 02:30:23;;;;;;;5.20;4.70;;;9.40;99.90;;;;;;5379793;26;20268;-73
2024/04/15 02:32:48;;;;;;;8.30;6.63;;;9.50;99.90;;;;;;5380330;26;20209;-73
2024/04/15 02:35:14;;;;;;;9.87;7.63;;;9.50;99.90;;;;;;5380312;26;20870;-73
2024/04/15 02:37:39;;;;;;;12.17;5.87;;;9.60;99.90;;;;;;5380007;26;20214;-73
2024/04/15 02:40:06;;;;;;;13.57;7.13;;;9.60;99.90;;;;;;5379414;26;20273;-73
2024/04/15 02:42:32;;;;;;;8.20;5.73;;;9.60;99.90;;;;;;5380108;26;20201;-73
2024/04/15 02:44:58;;;;;;;11.17;5.03;;;9.60;99.90;;;;;;5380010;26;20439;-73
2024/04/15 02:47:23;;;;;;;21.83;8.60;;;9.60;99.90;;;;;;5370919;26;20561;-73
2024/04/15 02:49:49;;;;;;;11.77;7.43;;;9.60;99.90;;;;;;5377256;26;20685;-73
2024/04/15 02:52:14;;;;;;;7.50;5.10;;;9.60;99.90;;;;;;5378116;26;20260;-73
2024/04/15 02:54:40;;;;;;;11.80;5.83;;;9.60;99.90;;;;;;5380003;26;20260;-73
2024/04/15 02:57:05;;;;;;;9.47;6.80;;;9.60;99.90;;;;;;5379894;26;20639;-73
2024/04/15 02:59:31;;;;;;;8.80;5.90;;;9.60;99.90;;;;;;5379380;26;20552;-73
2024/04/15 03:01:56;;;;;;;10.50;6.10;;;9.50;99.90;;;;;;5379790;26;20256;-73
2024/04/15 03:04:22;;;;;;;10.90;5.90;;;9.40;99.90;;;;;;5380005;26;20214;-73
2024/04/15 03:06:48;;;;;;;8.17;7.17;;;9.40;99.90;;;;;;5379802;26;20322;-73
2024/04/15 03:09:13;;;;;;;9.50;6.87;;;9.30;99.90;;;;;;5379698;26;20256;-73
2024/04/15 03:11:39;;;;;;;8.10;6.73;;;9.30;99.90;;;;;;5379073;26;20467;-73
2024/04/15 03:14:04;;;;;;;6.73;5.77;;;9.20;99.90;;;;;;5379619;26;20588;-73
2024/04/15 03:16:30;;;;;;;8.23;5.60;;;9.10;99.90;;;;;;5379529;26;20209;-73
2024/04/15 03:18:55;;;;;;;9.70;5.83;;;9.10;99.90;;;;;;5379537;26;20213;-73
2024/04/15 03:21:21;;;;;;;10.20;6.23;;;9.00;99.90;;;;;;5377108;26;20744;-73
2024/04/15 03:23:46;;;;;;;11.53;6.27;;;9.00;99.90;;;;;;5379451;26;20214;-73
2024/04/15 03:26:12;;;;;;;7.97;6.40;;;9.00;99.90;;;;;;5379350;26;20748;-73
2024/04/15 03:28:37;;;;;;;9.83;5.73;;;8.90;99.90;;;;;;5380802;26;20210;-73
2024/04/15 03:31:03;;;;;;;10.97;5.60;;;8.90;99.90;;;;;;5382460;26;20260;-73
2024/04/15 03:33:28;;;;;;;10.57;6.13;;;8.80;99.90;;;;;;5382711;26;20255;-73
2024/04/15 03:35:55;;;;;;;11.27;6.50;;;8.80;99.90;;;;;;5380494;26;20225;-73
2024/04/15 03:38:20;;;;;;;7.73;5.50;;;8.70;99.90;;;;;;5381061;26;20590;-73
2024/04/15 03:40:46;;;;;;;12.63;6.47;;;8.60;99.90;;;;;;5382126;26;20512;-73
2024/04/15 03:43:11;;;;;;;17.30;5.73;;;8.60;99.90;;;;;;5382542;26;20685;-73
2024/04/15 03:45:37;;;;;;;8.87;5.20;;;8.60;99.90;;;;;;5382705;26;20217;-73
2024/04/15 03:48:02;;;;;;;6.40;4.90;;;8.50;99.90;;;;;;5373260;26;20220;-73
2024/04/15 03:50:28;;;;;;;7.47;5.13;;;8.50;99.90;;;;;;5382000;26;20285;-73
2024/04/15 03:52:54;;;;;;;8.67;3.90;;;8.50;99.90;;;;;;5381858;26;20260;-73
2024/04/15 03:55:20;;;;;;;7.73;4.83;;;8.50;99.90;;;;;;5382593;26;20206;-73
2024/04/15 03:57:46;;;;;;;7.33;4.70;;;8.40;99.90;;;;;;5382007;26;20499;-73
2024/04/15 04:00:11;;;;;;;7.33;5.37;;;8.40;99.90;;;;;;5382040;26;20217;-74
2024/04/15 04:02:37;;;;;;;12.33;4.73;;;8.40;99.90;;;;;;5382616;26;20535;-73
2024/04/15 04:05:05;;;;;;;8.33;4.73;;;8.40;99.90;;;;;;5382559;26;20224;-73
2024/04/15 04:07:31;;;;;;;7.70;5.07;;;8.40;99.90;;;;;;5382781;26;20541;-73
2024/04/15 04:09:57;;;;;;;9.23;4.37;;;8.40;99.90;;;;;;5380633;26;20556;-73
2024/04/15 04:12:22;;;;;;;7.27;4.60;;;8.40;99.90;;;;;;5382486;26;20451;-73
2024/04/15 04:14:48;;;;;;;7.73;5.40;;;8.30;99.90;;;;;;5382390;26;20681;-73
2024/04/15 04:17:13;;;;;;;11.30;5.17;;;8.30;99.90;;;;;;5369447;26;20264;-73
2024/04/15 04:19:39;;;;;;;7.13;5.00;;;8.30;99.90;;;;;;5380957;26;20260;-73
2024/04/15 04:22:04;;;;;;;5.73;3.93;;;8.30;99.90;;;;;;5381978;26;20226;-74
2024/04/15 04:24:31;;;;;;;5.97;4.30;;;8.20;99.90;;;;;;5382174;26;20249;-73
2024/04/15 04:26:56;;;;;;;6.33;5.37;;;8.20;99.90;;;;;;5381706;26;20213;-73
2024/04/15 04:29:22;;;;;;;10.30;5.10;;;8.20;99.90;;;;;;5381679;26;20496;-73
2024/04/15 04:31:47;;;;;;;7.43;5.10;;;8.20;99.90;;;;;;5381999;26;20210;-73
2024/04/15 04:34:13;;;;;;;7.73;5.10;;;8.20;99.90;;;;;;5382227;26;20269;-73
2024/04/15 04:36:39;;;;;;;8.03;4.90;;;8.10;99.90;;;;;;5382279;26;20221;-73
2024/04/15 04:39:04;;;;;;;6.57;4.27;;;8.20;99.90;;;;;;5381768;26;20228;-73
2024/04/15 04:41:30;;;;;;;7.30;5.17;;;8.20;99.90;;;;;;5379606;26;20234;-73
2024/04/15 04:43:56;;;;;;;8.73;4.27;;;8.10;99.90;;;;;;5381795;26;20214;-73
2024/04/15 04:46:21;;;;;;;9.93;5.20;;;8.20;99.90;;;;;;5381844;26;20495;-73
2024/04/15 04:48:47;;;;;;;7.63;4.37;;;8.10;99.90;;;;;;5381860;26;20321;-73
2024/04/15 04:51:12;;;;;;;13.83;4.43;;;8.10;99.90;;;;;;5381336;26;20263;-73
2024/04/15 04:53:38;;;;;;;10.90;5.27;;;8.20;99.90;;;;;;5381705;26;20214;-73
2024/04/15 04:56:11;;;;;;;6.90;4.17;;;8.10;99.90;;;;;;5381543;26;20213;-72
2024/04/15 04:58:41;;;;;;;6.17;3.93;;;8.20;99.90;;;;;;5379919;26;20689;-73
2024/04/15 05:01:14;;;;;;;6.57;3.70;;;8.20;99.90;;;;;;5381028;26;20456;-73
2024/04/15 05:03:47;;;;;;;25.03;16.00;;;8.20;99.90;;;;;;5379825;26;20831;-73
2024/04/15 05:06:15;;;;;;;22.40;11.60;;;8.10;99.90;;;;;;5381502;26;20492;-73
2024/04/15 05:08:40;;;;;;;9.63;4.40;;;8.20;99.90;;;;;;5379582;26;20463;-73
2024/04/15 05:11:06;;;;;;;12.30;3.90;;;8.20;99.90;;;;;;5380876;26;20455;-73
2024/04/15 05:13:33;;;;;;;9.70;3.60;;;8.30;99.90;;;;;;5381522;26;20210;-72
2024/04/15 05:16:12;;;;;;;12.00;4.57;;;8.30;99.90;;;;;;5377102;26;20509;-73
2024/04/15 05:18:39;;;;;;;6.00;3.77;;;8.30;99.90;;;;;;5380150;26;20515;-73
2024/04/15 05:21:10;;;;;;;6.77;3.63;;;8.40;99.90;;;;;;5380421;26;20520;-72
2024/04/15 05:23:36;;;;;;;5.00;2.93;;;8.50;99.90;;;;;;5381420;26;20499;-73
2024/04/15 05:26:01;;;;;;;6.53;3.90;;;8.60;99.90;;;;;;5381046;26;20983;-73
2024/04/15 05:28:27;;;;;;;6.53;3.57;;;8.70;99.90;;;;;;5381188;26;20259;-73
2024/04/15 05:30:54;;;;;;;8.43;3.07;;;8.80;99.90;;;;;;5380722;26;20222;-73
2024/04/15 05:33:20;;;;;;;5.73;2.80;;;9.00;99.90;;;;;;5381107;26;20255;-73
2024/04/15 05:35:46;;;;;;;5.80;3.27;;;9.10;99.90;;;;;;5381372;26;20439;-73
2024/04/15 05:38:13;;;;;;;7.37;2.90;;;9.30;99.90;;;;;;5381261;26;20283;-73
2024/04/15 05:40:38;;;;;;;3.10;2.80;;;9.60;99.90;;;;;;5367297;26;20453;-73
2024/04/15 05:43:07;;;;;;;4.03;2.20;;;10.10;99.90;;;;;;5373691;26;20789;-73
2024/04/15 05:45:33;;;;;;;11.83;3.10;;;10.30;99.90;;;;;;5374437;26;20218;-73
2024/04/15 05:47:59;;;;;;;5.17;3.07;;;10.50;99.90;;;;;;5380787;26;20504;-73
2024/04/15 05:50:24;;;;;;;3.50;2.57;;;10.80;99.90;;;;;;5372198;26;20994;-73
2024/04/15 05:52:50;;;;;;;4.90;2.33;;;11.10;99.90;;;;;;5370350;26;20675;-73
2024/04/15 05:55:15;;;;;;;6.83;3.03;;;11.20;99.90;;;;;;5380498;26;20727;-73
2024/04/15 05:57:41;;;;;;;3.40;2.47;;;11.30;99.90;;;;;;5380998;26;20267;-74
2024/04/15 06:00:08;;;;;;;7.63;2.60;;;11.60;99.90;;;;;;5380213;26;20233;-73
2024/04/15 06:02:33;;;;;;;6.83;3.07;;;12.00;99.90;;;;;;5380277;26;20245;-73
2024/04/15 06:04:59;;;;;;;3.40;2.37;;;12.10;99.90;;;;;;5380490;26;20535;-73
2024/04/15 06:07:24;;;;;;;3.30;2.20;;;12.30;99.90;;;;;;5380354;26;20256;-73
2024/04/15 06:09:50;;;;;;;13.00;3.30;;;12.60;99.90;;;;;;5379883;26;20585;-73
2024/04/15 06:12:16;;;;;;;3.83;1.53;;;13.00;99.90;;;;;;5380485;26;20218;-73
2024/04/15 06:14:41;;;;;;;3.70;2.23;;;13.30;99.90;;;;;;5380280;26;20740;-73
2024/04/15 06:17:07;;;;;;;3.50;2.00;;;13.30;99.90;;;;;;5370063;26;20221;-73
2024/04/15 06:19:33;;;;;;;5.90;2.70;;;13.20;99.90;;;;;;5368210;26;20219;-73
2024/04/15 06:22:00;;;;;;;3.83;2.00;;;13.10;99.90;;;;;;5379595;26;20560;-73
2024/04/15 06:24:26;;;;;;;6.93;2.37;;;12.90;99.90;;;;;;5372590;26;20814;-73
2024/04/15 06:26:51;;;;;;;2.13;1.93;;;12.50;99.90;;;;;;5380379;26;20511;-73
2024/04/15 06:29:17;;;;;;;3.60;2.40;;;12.10;99.90;;;;;;5367554;26;20456;-73
2024/04/15 06:31:43;;;;;;;4.13;2.20;;;12.00;99.90;;;;;;5379543;26;20221;-73
2024/04/15 06:34:08;;;;;;;2.00;1.80;;;11.70;99.90;;;;;;5380058;26;20217;-73
2024/04/15 06:36:34;;;;;;;3.40;1.70;;;11.50;99.90;;;;;;5380221;26;20612;-72
2024/04/15 06:39:01;;;;;;;3.23;2.07;;;11.20;99.90;;;;;;5379223;26;20210;-74
2024/04/15 06:41:27;;;;;;;5.90;2.63;;;11.10;99.90;;;;;;5378994;26;20322;-72
2024/04/15 06:43:52;;;;;;;12.07;2.40;;;11.00;99.90;;;;;;5379783;26;20456;-72
2024/04/15 06:46:18;;;;;;;3.30;2.00;;;10.90;99.90;;;;;;5380085;26;20205;-72
2024/04/15 06:48:43;;;;;;;3.80;2.00;;;11.00;99.90;;;;;;5379824;26;20229;-72
2024/04/15 06:51:10;;;;;;;3.70;2.13;;;11.00;99.90;;;;;;5379314;26;20229;-72
2024/04/15 06:53:36;;;;;;;7.77;2.10;;;10.90;99.90;;;;;;5379863;26;20264;-72
2024/04/15 06:56:02;;;;;;;15.77;2.33;;;11.20;99.90;;;;;;5368712;26;20460;-72
2024/04/15 06:58:28;;;;;;;2.80;1.63;;;11.50;99.90;;;;;;5373435;26;20459;-72
2024/04/15 07:00:56;;;;;;;7.07;1.73;;;11.70;99.90;;;;;;5376830;26;20522;-71
2024/04/15 07:03:22;;;;;;;5.60;1.90;;;11.70;99.90;;;;;;5380886;26;20452;-72
2024/04/15 07:05:47;;;;;;;6.33;2.50;;;11.90;99.90;;;;;;5383228;26;20443;-72
2024/04/15 07:08:13;;;;;;;8.53;2.40;;;11.80;99.90;;;;;;5382956;26;20363;-72
2024/04/15 07:10:38;;;;;;;4.00;2.27;;;11.80;99.90;;;;;;5367778;26;20619;-72
2024/04/15 07:13:05;;;;;;;3.47;2.27;;;11.50;99.90;;;;;;5360443;26;20217;-73
2024/04/15 07:15:31;;;;;;;10.53;2.87;;;11.60;99.90;;;;;;5371944;26;20264;-74
2024/04/15 07:17:56;;;;;;;2.67;1.90;;;11.70;99.90;;;;;;5368934;26;20453;-75
2024/04/15 07:20:22;;;;;;;3.60;1.87;;;12.00;99.90;;;;;;5383170;26;20660;-74
2024/04/15 07:22:47;;;;;;;3.20;1.90;;;12.50;99.90;;;;;;5381575;26;20225;-73
2024/04/15 07:25:13;;;;;;;2.40;2.07;;;12.90;99.90;;;;;;5383253;26;20250;-75
2024/04/15 07:27:41;;;;;;;9.13;2.73;;;13.00;99.90;;;;;;5383249;26;20249;-74
2024/04/15 07:30:07;;;;;;;5.40;1.87;;;13.10;99.90;;;;;;5382955;26;20229;-74
2024/04/15 07:32:33;;;;;;;10.50;2.73;;;13.10;99.90;;;;;;5383816;26;20440;-74
2024/04/15 07:34:58;;;;;;;2.17;1.53;;;13.50;99.90;;;;;;5383111;26;20496;-75
2024/04/15 07:37:24;;;;;;;3.80;1.73;;;14.80;99.90;;;;;;5382754;26;20218;-74
2024/04/15 07:39:50;;;;;;;8.70;2.13;;;16.00;99.90;;;;;;5380449;26;20731;-74
2024/04/15 07:42:16;;;;;;;5.73;2.13;;;17.10;99.90;;;;;;5382718;26;20206;-74
2024/04/15 07:44:41;;;;;;;5.63;2.60;;;17.90;98.90;;;;;;5382891;26;20447;-73
2024/04/15 07:47:07;;;;;;;4.30;2.37;;;18.30;96.10;;;;;;5382761;26;20225;-75
2024/04/15 07:49:33;;;;;;;4.10;2.30;;;18.70;93.60;;;;;;5382156;26;20221;-76
2024/04/15 07:51:59;;;;;;;10.60;2.37;;;19.20;90.50;;;;;;5382728;26;20267;-74
2024/04/15 07:54:24;;;;;;;4.50;2.27;;;19.40;81.50;;;;;;5382696;26;20502;-74
2024/04/15 07:56:50;;;;;;;5.57;2.13;;;19.80;80.00;;;;;;5382814;26;20217;-74
2024/04/15 07:59:15;;;;;;;3.87;2.20;;;20.50;74.00;;;;;;5382271;26;20260;-75
2024/04/15 08:01:41;;;;;;;3.73;1.70;;;20.10;67.10;;;;;;5372808;26;20553;-74
2024/04/15 08:04:06;;;;;;;10.10;2.30;;;20.20;72.00;;;;;;5368082;26;20285;-75
2024/04/15 08:06:32;;;;;;;2.53;1.67;;;20.00;65.70;;;;;;5377610;26;20320;-75
2024/04/15 08:08:58;;;;;;;4.03;1.43;;;20.20;66.30;;;;;;5368499;26;20420;-75
2024/04/15 08:11:23;;;;;;;3.87;2.00;;;20.50;62.50;;;;;;5364783;26;20801;-75
2024/04/15 08:13:49;;;;;;;1.97;1.53;;;21.00;62.10;;;;;;5363267;26;20270;-73
2024/04/15 08:16:15;;;;;;;4.60;1.57;;;21.60;58.30;;;;;;5368787;26;20261;-74
2024/04/15 08:18:40;;;;;;;7.37;1.60;;;22.10;56.10;;;;;;5363685;26;20461;-74
2024/04/15 08:21:07;;;;;;;4.20;2.07;;;21.70;52.70;;;;;;5375474;26;20558;-74
2024/04/15 08:23:33;;;;;;;6.00;1.70;;;21.50;52.40;;;;;;5382539;26;20268;-74
2024/04/15 08:25:58;;;;;;;5.63;1.83;;;22.40;55.30;;;;;;5382772;26;20463;-75
2024/04/15 08:28:24;;;;;;;8.00;2.10;;;22.90;51.50;;;;;;5381645;26;20732;-74
2024/04/15 08:30:50;;;;;;;5.60;1.80;;;23.10;50.40;;;;;;5382345;26;20237;-74
2024/04/15 08:33:16;;;;;;;3.80;2.13;;;22.40;48.00;;;;;;5382027;26;20463;-74
2024/04/15 08:35:42;;;;;;;2.23;1.20;;;21.10;48.10;;;;;;5381960;26;20786;-75
2024/04/15 08:38:07;;;;;;;2.43;1.57;;;20.00;49.90;;;;;;5381688;26;20456;-74
2024/04/15 08:40:33;;;;;;;4.43;1.93;;;19.40;51.90;;;;;;5379742;26;20334;-74
2024/04/15 08:43:03;;;;;;;2.50;1.63;;;18.70;53.40;;;;;;5383292;26;20210;-73
2024/04/15 08:45:30;;;;;;;2.27;1.63;;;18.10;55.10;;;;;;5380840;26;20310;-74
2024/04/15 08:47:57;;;;;;;2.83;1.47;;;18.00;57.30;;;;;;5380077;26;20539;-74
2024/04/15 08:50:25;;;;;;;2.97;2.27;;;17.80;58.40;;;;;;5381487;26;20455;-74
2024/04/15 08:52:52;;;;;;;4.30;2.00;;;17.70;59.10;;;;;;5379272;26;20848;-75
2024/04/15 08:55:19;;;;;;;6.50;2.17;;;17.50;58.40;;;;;;5376391;26;20460;-74
2024/04/15 08:57:48;;;;;;;2.90;1.30;;;17.20;59.00;;;;;;5379010;26;21002;-74
2024/04/15 09:00:20;;;;;;;2.50;1.37;;;16.90;60.50;;;;;;5380933;26;20488;-73
2024/04/15 09:02:48;;;;;;;1.70;1.60;;;16.50;60.90;;;;;;5381554;26;20578;-73
2024/04/15 09:05:14;;;;;;;9.20;1.90;;;16.50;62.70;;;;;;5379433;26;20531;-74
2024/04/15 09:07:40;;;;;;;2.00;1.27;;;16.40;64.80;;;;;;5380968;26;20464;-74
2024/04/15 09:10:07;;;;;;;2.20;1.30;;;16.30;64.60;;;;;;5373737;26;20335;-74
2024/04/15 09:12:38;;;;;;;6.30;2.80;;;16.50;65.30;;;;;;5381441;26;20459;-74
2024/04/15 09:15:04;;;;;;;2.90;1.30;;;16.30;63.00;;;;;;5378105;26;20540;-74
2024/04/15 09:17:31;;;;;;;1.93;1.33;;;16.50;64.60;;;;;;5371982;26;20451;-74
2024/04/15 09:19:57;;;;;;;9.00;1.17;;;16.80;63.50;;;;;;5380704;26;20467;-74
2024/04/15 09:22:33;;;;;;;7.33;1.67;;;17.20;64.70;;;;;;5370032;26;20452;-74
2024/04/15 09:25:01;;;;;;;2.77;1.30;;;18.30;62.20;;;;;;5380920;26;20514;-74
2024/04/15 09:27:26;;;;;;;5.13;1.27;;;18.80;57.30;;;;;;5380593;26;20500;-74
2024/04/15 09:29:52;;;;;;;6.83;1.83;;;18.70;55.80;;;;;;5378619;26;20472;-74
2024/04/15 09:32:21;;;;;;;2.50;1.50;;;18.60;55.00;;;;;;5357892;26;20264;-74
2024/04/15 09:34:52;;;;;;;3.03;1.57;;;17.90;54.60;;;;;;5366117;26;20237;-73
2024/04/15 09:37:17;;;;;;;4.10;1.63;;;18.00;55.70;;;;;;5354025;26;20446;-73
2024/04/15 09:39:44;;;;;;;6.00;1.30;;;18.60;55.70;;;;;;5371655;26;20463;-72
2024/04/15 09:42:14;;;;;;;4.77;1.50;;;19.50;55.50;;;;;;5381239;26;20272;-72
2024/04/15 09:44:45;;;;;;;3.47;1.73;;;19.80;53.30;;;;;;5380977;26;20557;-73
2024/04/15 09:47:11;;;;;;;2.93;1.47;;;20.10;52.50;;;;;;5381151;26;20523;-72
2024/04/15 09:49:37;;;;;;;2.60;1.37;;;20.50;52.10;;;;;;5380368;26;20499;-72
2024/04/15 09:52:04;;;;;;;6.07;2.23;;;21.70;49.80;;;;;;5380889;26;20447;-73
2024/04/15 09:54:32;;;;;;;3.23;1.30;;;23.00;49.10;;;;;;5381045;26;20628;-73
2024/04/15 09:57:14;;;;;;;5.03;1.47;;;23.30;44.50;;;;;;5380965;26;21013;-72
2024/04/15 09:59:44;;;;;;;3.73;1.40;;;22.80;44.20;;;;;;5380329;26;20447;-72
2024/04/15 10:02:27;;;;;;;1.67;1.17;;;23.20;42.90;;;;;;5381080;26;20448;-73
2024/04/15 10:04:57;;;;;;;4.00;1.73;;;23.20;43.30;;;;;;5380783;26;21026;-72
2024/04/15 10:07:25;;;;;;;3.10;1.17;;;23.10;41.30;;;;;;5380880;26;20510;-72
2024/04/15 10:09:51;;;;;;;4.07;1.57;;;22.70;40.90;;;;;;5380322;26;20456;-72
2024/04/15 10:12:18;;;;;;;3.63;1.60;;;22.10;40.20;;;;;;5380691;26;20984;-72
2024/04/15 10:14:45;;;;;;;2.47;1.40;;;21.50;40.60;;;;;;5380798;26;20776;-73
2024/04/15 10:17:11;;;;;;;7.27;2.23;;;22.10;41.50;;;;;;5382080;26;21030;-71
2024/04/15 10:19:36;;;;;;;4.83;1.23;;;22.20;41.00;;;;;;5380162;26;20619;-72
2024/04/15 10:22:02;;;;;;;3.40;1.43;;;21.90;41.30;;;;;;5380445;26;20550;-73
2024/04/15 10:24:28;;;;;;;2.03;1.50;;;21.30;41.00;;;;;;5380537;26;20214;-73
2024/04/15 10:26:54;;;;;;;2.90;1.30;;;21.90;41.30;;;;;;5380597;26;20221;-72
2024/04/15 10:29:25;;;;;;;5.97;1.40;;;21.70;41.40;;;;;;5380687;26;20473;-72
2024/04/15 10:31:52;;;;;;;1.70;1.00;;;22.80;41.50;;;;;;5380460;26;20217;-73
2024/04/15 10:34:24;;;;;;;3.13;1.07;;;22.60;40.20;;;;;;5378540;26;20444;-72
2024/04/15 10:36:54;;;;;;;1.80;1.13;;;23.90;42.10;;;;;;5371671;26;20459;-72
2024/04/15 10:39:21;;;;;;;4.20;1.37;;;25.70;40.70;;;;;;5379978;26;20508;-72
2024/04/15 10:41:48;;;;;;;1.80;1.40;;;27.50;39.60;;;;;;5366877;26;20566;-72
2024/04/15 10:44:14;;;;;;;5.23;1.70;;;27.90;35.80;;;;;;5380081;26;20517;-72
2024/04/15 10:46:47;;;;;;;2.70;2.10;;;28.50;34.60;;;;;;5365973;26;20471;-70
2024/04/15 10:49:14;;;;;;;4.30;1.90;;;29.60;32.20;;;;;;5380119;26;20229;-73
2024/04/15 10:51:40;;;;;;;3.30;1.60;;;30.80;30.90;;;;;;5379538;26;20986;-72
2024/04/15 10:54:05;;;;;;;4.27;2.10;;;30.70;28.20;;;;;;5366957;26;20519;-73
2024/04/15 10:56:31;;;;;;;2.90;1.90;;;29.60;28.20;;;;;;5380034;26;20229;-72
2024/04/15 10:58:57;;;;;;;2.50;2.10;;;28.20;28.60;;;;;;5379990;26;20409;-72
2024/04/15 11:01:22;;;;;;;3.97;1.70;;;27.60;29.70;;;;;;5379356;26;20826;-72
2024/04/15 11:03:50;;;;;;;2.23;1.60;;;27.10;29.80;;;;;;5379671;26;20762;-73
2024/04/15 11:06:19;;;;;;;3.20;1.87;;;27.50;30.10;;;;;;5379786;26;20213;-72
2024/04/15 11:08:45;;;;;;;3.50;1.80;;;27.30;29.60;;;;;;5379593;26;20455;-72
2024/04/15 11:11:12;;;;;;;2.13;1.80;;;26.70;29.50;;;;;;5371585;26;20459;-71
2024/04/15 11:13:40;;;;;;;3.87;1.70;;;26.80;29.50;;;;;;5377754;26;20514;-72
2024/04/15 11:16:06;;;;;;;2.80;1.73;;;26.60;29.80;;;;;;5379442;26;20500;-72
2024/04/15 11:18:31;;;;;;;2.87;1.53;;;26.50;30.00;;;;;;5379238;26;20463;-72
2024/04/15 11:20:59;;;;;;;2.03;1.83;;;25.50;30.00;;;;;;5356089;26;20521;-72
2024/04/15 11:23:24;;;;;;;3.53;1.80;;;24.80;31.40;;;;;;5367078;26;20269;-72
2024/04/15 11:25:51;;;;;;;4.17;2.37;;;24.50;32.30;;;;;;5373253;26;20460;-73
2024/04/15 11:28:18;;;;;;;5.43;1.73;;;23.90;32.90;;;;;;5343442;26;20910;-73
2024/04/15 11:30:44;;;;;;;3.83;1.60;;;23.80;33.20;;;;;;5343593;26;20447;-72
2024/04/15 11:33:11;;;;;;;4.23;1.70;;;23.50;33.10;;;;;;5356555;26;20460;-72
2024/04/15 11:35:52;;;;;;;1.77;1.30;;;23.80;33.20;;;;;;5374351;26;20533;-72
2024/04/15 11:38:20;;;;;;;5.30;2.07;;;23.90;32.70;;;;;;5344017;26;20861;-72
2024/04/15 11:40:46;;;;;;;3.80;1.73;;;24.10;33.20;;;;;;5343719;26;20494;-73
2024/04/15 11:43:12;;;;;;;1.83;1.43;;;25.00;32.50;;;;;;5344435;26;20438;-72
2024/04/15 11:45:47;;;;;;;2.97;1.90;;;25.90;31.70;;;;;;5344256;26;20599;-72
2024/04/15 11:48:12;;;;;;;4.27;1.90;;;25.60;30.70;;;;;;5344032;26;20492;-72
2024/04/15 11:50:38;;;;;;;2.00;1.47;;;24.80;29.90;;;;;;5347242;26;20456;-72
2024/04/15 11:53:05;;;;;;;5.13;2.13;;;24.50;30.80;;;;;;5347542;26;20270;-72
2024/04/15 11:55:31;;;;;;;2.33;1.57;;;24.40;30.40;;;;;;5347825;26;20744;-72
2024/04/15 11:57:57;;;;;;;1.90;1.33;;;23.30;29.90;;;;;;5347408;26;20441;-72
2024/04/15 12:00:22;;;;;;;2.20;1.33;;;22.00;31.30;;;;;;5347212;26;20231;-71
2024/04/15 12:02:48;;;;;;;2.70;1.33;;;20.90;32.20;;;;;;5347293;26;20556;-72
2024/04/15 12:05:14;;;;;;;1.90;1.27;;;20.70;33.50;;;;;;5347438;26;20211;-72
2024/04/15 12:07:41;;;;;;;2.33;1.37;;;20.60;33.70;;;;;;5347309;26;20786;-72
2024/04/15 12:10:08;;;;;;;1.60;1.17;;;20.00;33.60;;;;;;5347042;26;20575;-71
2024/04/15 12:12:33;;;;;;;2.40;1.47;;;19.60;33.80;;;;;;5347458;26;20540;-72
2024/04/15 12:15:00;;;;;;;4.70;1.40;;;19.00;34.70;;;;;;5347412;26;20449;-72
2024/04/15 12:17:26;;;;;;;1.60;1.00;;;18.50;35.60;;;;;;5347415;26;20546;-72
2024/04/15 12:19:51;;;;;;;0.90;0.70;;;18.30;36.40;;;;;;5344886;26;20524;-72
2024/04/15 12:22:17;;;;;;;3.17;1.10;;;17.80;36.20;;;;;;5347259;26;20320;-72
2024/04/15 12:24:42;;;;;;;4.67;1.30;;;17.70;37.50;;;;;;5347238;26;20312;-72
2024/04/15 12:27:08;;;;;;;2.80;1.10;;;17.40;38.50;;;;;;5357171;26;20330;-71
2024/04/15 12:29:34;;;;;;;2.30;1.33;;;17.00;38.00;;;;;;5352185;26;20633;-72
2024/04/15 12:31:59;;;;;;;1.00;0.80;;;16.50;38.70;;;;;;5363755;26;20268;-72
2024/04/15 12:34:25;;;;;;;1.90;0.97;;;15.90;38.70;;;;;;5370454;26;20259;-71
2024/04/15 12:36:50;;;;;;;4.40;1.67;;;15.70;39.70;;;;;;5366834;26;20227;-72
2024/04/15 12:39:16;;;;;;;4.63;1.10;;;15.50;40.70;;;;;;5366577;26;20256;-71
2024/04/15 12:41:43;;;;;;;1.27;1.17;;;15.30;40.70;;;;;;5363365;26;20222;-72
2024/04/15 12:44:09;;;;;;;1.40;0.93;;;15.30;41.40;;;;;;5371545;26;20217;-72